createdAt,value
2022-11-02T00:01:34.920Z,24.17
2022-11-02T00:04:03.425Z,26.40
2022-11-02T00:06:32.757Z,25.87
2022-11-02T00:09:00.805Z,26.30
2022-11-02T00:11:28.802Z,27.07
2022-11-02T00:13:56.853Z,29.93
2022-11-02T00:16:25.887Z,23.67
2022-11-02T00:18:56.927Z,26.37
2022-11-02T00:21:27.009Z,26.10
2022-11-02T00:23:58.905Z,25.57
2022-11-02T00:26:28.694Z,24.57
2022-11-02T00:28:56.758Z,24.60
2022-11-02T00:31:25.073Z,25.00
2022-11-02T00:33:53.146Z,26.10
2022-11-02T00:36:21.741Z,26.87
2022-11-02T00:38:49.729Z,28.90
2022-11-02T00:41:20.905Z,26.43
2022-11-02T00:43:48.878Z,22.73
2022-11-02T00:46:17.056Z,23.93
2022-11-02T00:48:45.650Z,26.13
2022-11-02T00:51:13.640Z,26.47
2022-11-02T00:53:41.842Z,27.57
2022-11-02T00:56:10.107Z,25.13
2022-11-02T00:58:39.493Z,26.17
2022-11-02T01:01:08.369Z,23.70
2022-11-02T01:03:36.514Z,21.40
2022-11-02T01:06:10.116Z,23.23
2022-11-02T01:08:38.239Z,23.10
2022-11-02T01:11:14.289Z,27.63
2022-11-02T01:13:44.032Z,23.60
2022-11-02T01:16:13.170Z,23.37
2022-11-02T01:18:41.564Z,23.63
2022-11-02T01:21:10.064Z,24.83
2022-11-02T01:23:39.535Z,24.87
2022-11-02T01:26:08.785Z,23.20
2022-11-02T01:28:37.282Z,23.87
2022-11-02T01:31:06.964Z,23.17
2022-11-02T01:33:34.969Z,24.40
2022-11-02T01:36:05.668Z,27.40
2022-11-02T01:38:34.635Z,23.53
2022-11-02T01:41:02.622Z,22.27
2022-11-02T01:43:32.575Z,22.83
2022-11-02T01:46:05.346Z,22.80
2022-11-02T01:48:37.432Z,24.83
2022-11-02T01:51:12.515Z,21.23
2022-11-02T01:53:44.899Z,25.67
2022-11-02T01:56:16.881Z,22.63
2022-11-02T01:58:48.575Z,24.87
2022-11-02T02:01:16.842Z,23.80
2022-11-02T02:03:47.402Z,24.37
2022-11-02T02:06:18.430Z,21.37
2022-11-02T02:08:48.174Z,24.77
2022-11-02T02:11:30.264Z,24.50
2022-11-02T02:14:00.832Z,25.40
2022-11-02T02:16:45.225Z,27.17
2022-11-02T02:19:28.952Z,27.97
2022-11-02T02:22:14.008Z,28.50
2022-11-02T02:24:50.128Z,27.67
2022-11-02T02:27:23.095Z,26.73
2022-11-02T02:30:04.419Z,28.67
2022-11-02T02:32:40.530Z,28.37
2022-11-02T02:35:17.978Z,29.93
2022-11-02T02:37:53.630Z,28.87
2022-11-02T02:40:26.366Z,27.73
2022-11-02T02:42:57.820Z,29.60
2022-11-02T02:45:33.063Z,25.43
2022-11-02T02:48:04.732Z,30.33
2022-11-02T02:50:36.924Z,27.30
2022-11-02T02:53:08.108Z,28.77
2022-11-02T02:55:42.399Z,30.80
2022-11-02T02:58:15.555Z,28.80
2022-11-02T03:00:45.440Z,28.73
2022-11-02T03:03:19.582Z,26.80
2022-11-02T03:06:03.281Z,27.57
2022-11-02T03:08:33.944Z,26.90
2022-11-02T03:11:10.206Z,28.63
2022-11-02T03:13:48.185Z,25.67
2022-11-02T03:16:32.340Z,27.27
2022-11-02T03:19:13.101Z,26.47
2022-11-02T03:21:44.584Z,26.13
2022-11-02T03:24:17.627Z,24.17
2022-11-02T03:26:52.689Z,24.10
2022-11-02T03:29:25.207Z,31.17
2022-11-02T03:32:00.127Z,25.67
2022-11-02T03:34:32.755Z,29.63
2022-11-02T03:37:04.997Z,27.00
2022-11-02T03:39:37.668Z,26.77
2022-11-02T03:42:09.268Z,30.03
2022-11-02T03:44:40.234Z,25.73
2022-11-02T03:47:14.392Z,29.07
2022-11-02T03:49:44.735Z,29.43
2022-11-02T03:52:17.646Z,31.10
2022-11-02T03:54:51.185Z,29.33
2022-11-02T03:57:23.481Z,31.33
2022-11-02T03:59:52.529Z,28.63
2022-11-02T04:02:21.981Z,31.63
2022-11-02T04:04:51.589Z,27.47
2022-11-02T04:07:24.827Z,33.00
2022-11-02T04:09:52.812Z,28.17
2022-11-02T04:12:38.023Z,29.63
2022-11-02T04:15:07.125Z,28.83
2022-11-02T04:17:53.704Z,30.70
2022-11-02T04:20:22.910Z,30.03
2022-11-02T04:23:08.638Z,32.50
2022-11-02T04:25:36.971Z,32.13
2022-11-02T04:28:09.001Z,32.07
2022-11-02T04:30:37.254Z,30.93
2022-11-02T04:33:24.365Z,32.77
2022-11-02T04:35:52.347Z,36.57
2022-11-02T04:38:40.320Z,31.13
2022-11-02T04:41:28.344Z,32.83
2022-11-02T04:43:56.778Z,33.87
2022-11-02T04:46:26.345Z,31.87
2022-11-02T04:48:55.917Z,33.40
2022-11-02T04:51:25.254Z,33.40
2022-11-02T04:53:53.942Z,30.60
2022-11-02T04:56:22.666Z,34.10
2022-11-02T04:58:51.570Z,33.07
2022-11-02T05:01:20.587Z,34.20
2022-11-02T05:03:49.041Z,36.00
2022-11-02T05:06:19.444Z,32.07
2022-11-02T05:08:50.602Z,35.13
2022-11-02T05:11:18.883Z,38.37
2022-11-02T05:13:46.894Z,35.27
2022-11-02T05:16:16.711Z,37.97
2022-11-02T05:18:45.233Z,36.17
2022-11-02T05:21:13.615Z,36.53
2022-11-02T05:23:43.096Z,38.13
2022-11-02T05:26:13.378Z,38.13
2022-11-02T05:28:41.420Z,37.33
2022-11-02T05:31:09.413Z,37.37
2022-11-02T05:33:37.908Z,39.80
2022-11-02T05:36:06.349Z,38.30
2022-11-02T05:38:34.475Z,38.17
2022-11-02T05:41:03.923Z,36.37
2022-11-02T05:43:32.026Z,38.57
2022-11-02T05:46:01.596Z,36.50
2022-11-02T05:48:32.023Z,43.33
2022-11-02T05:51:01.761Z,41.33
2022-11-02T05:53:31.653Z,41.90
2022-11-02T05:56:00.566Z,40.30
2022-11-02T05:58:33.706Z,38.40
2022-11-02T06:01:02.623Z,41.40
2022-11-02T06:03:31.531Z,44.33
2022-11-02T06:05:59.950Z,43.23
2022-11-02T06:08:28.155Z,47.53
2022-11-02T06:10:56.158Z,44.67
2022-11-02T06:13:24.136Z,42.47
2022-11-02T06:15:53.512Z,44.77
2022-11-02T06:18:21.504Z,42.93
2022-11-02T06:20:49.500Z,44.37
2022-11-02T06:23:18.280Z,46.60
2022-11-02T06:25:52.053Z,48.40
2022-11-02T06:28:20.163Z,44.83
2022-11-02T06:30:49.193Z,43.97
2022-11-02T06:33:19.517Z,45.53
2022-11-02T06:35:48.872Z,45.27
2022-11-02T06:38:17.142Z,39.23
2022-11-02T06:40:53.711Z,43.83
2022-11-02T06:43:22.179Z,40.20
2022-11-02T06:45:50.444Z,41.80
2022-11-02T06:48:19.795Z,40.07
2022-11-02T06:50:47.801Z,40.93
2022-11-02T06:53:15.800Z,39.53
2022-11-02T06:55:44.052Z,37.27
2022-11-02T06:58:13.511Z,41.40
2022-11-02T07:00:41.578Z,43.27
2022-11-02T07:03:11.855Z,43.77
2022-11-02T07:05:41.312Z,47.30
2022-11-02T07:08:09.541Z,47.43
2022-11-02T07:10:37.863Z,48.43
2022-11-02T07:13:06.287Z,47.10
2022-11-02T07:15:34.710Z,48.10
2022-11-02T07:18:02.793Z,45.67
2022-11-02T07:20:31.350Z,46.07
2022-11-02T07:23:02.764Z,44.73
2022-11-02T07:25:32.410Z,42.47
2022-11-02T07:28:01.340Z,36.53
2022-11-02T07:30:29.604Z,38.97
2022-11-02T07:32:57.710Z,35.93
2022-11-02T07:35:26.166Z,36.03
2022-11-02T07:37:58.427Z,35.90
2022-11-02T07:40:28.889Z,39.33
2022-11-02T07:42:57.034Z,34.67
2022-11-02T07:45:25.358Z,34.93
2022-11-02T07:47:56.091Z,35.20
2022-11-02T07:50:26.998Z,38.57
2022-11-02T07:52:56.476Z,33.70
2022-11-02T07:55:27.701Z,31.73
2022-11-02T07:57:56.257Z,32.83
2022-11-02T08:00:25.963Z,31.97
2022-11-02T08:02:56.192Z,32.53
2022-11-02T08:05:26.952Z,33.23
2022-11-02T08:10:42.156Z,30.07
2022-11-02T08:13:11.533Z,29.97
2022-11-02T08:15:39.886Z,28.17
2022-11-02T08:18:11.096Z,26.30
2022-11-02T08:20:40.503Z,27.30
2022-11-02T08:23:11.963Z,27.60
2022-11-02T08:25:41.856Z,28.73
2022-11-02T08:28:13.965Z,27.43
2022-11-02T08:30:41.983Z,27.90
2022-11-02T08:33:13.452Z,23.33
2022-11-02T08:35:42.783Z,26.63
2022-11-02T08:38:11.692Z,25.50
2022-11-02T08:40:41.275Z,24.30
2022-11-02T08:43:10.810Z,23.37
2022-11-02T08:46:13.189Z,23.07
2022-11-02T08:48:28.854Z,22.73
2022-11-02T08:50:56.942Z,22.00
2022-11-02T08:53:25.013Z,20.80
2022-11-02T08:55:54.393Z,23.43
2022-11-02T08:58:22.384Z,23.13
2022-11-02T09:00:50.371Z,24.53
2022-11-02T09:03:25.060Z,26.30
2022-11-02T09:05:58.601Z,22.93
2022-11-02T09:08:27.665Z,26.00
2022-11-02T09:11:00.296Z,26.33
2022-11-02T09:13:28.699Z,26.80
2022-11-02T09:15:59.159Z,25.27
2022-11-02T09:18:29.762Z,27.03
2022-11-02T09:20:58.350Z,23.83
2022-11-02T09:23:26.722Z,24.00
2022-11-02T09:25:54.722Z,21.70
2022-11-02T09:28:24.201Z,23.63
2022-11-02T09:30:52.476Z,21.80
2022-11-02T09:33:20.536Z,21.63
2022-11-02T09:35:50.121Z,18.57
2022-11-02T09:38:19.314Z,20.70
2022-11-02T09:40:54.555Z,22.77
2022-11-02T09:43:32.598Z,19.63
2022-11-02T09:46:05.063Z,18.03
2022-11-02T09:48:37.271Z,18.97
2022-11-02T09:51:09.931Z,16.67
2022-11-02T09:53:50.252Z,15.20
2022-11-02T09:56:20.801Z,14.30
2022-11-02T09:58:56.624Z,14.73
2022-11-02T10:01:42.680Z,13.03
2022-11-02T10:04:35.484Z,11.93
2022-11-02T10:07:10.242Z,11.23
2022-11-02T10:09:46.674Z,9.80
2022-11-02T10:12:18.838Z,11.50
2022-11-02T10:14:56.097Z,11.13
2022-11-02T10:17:27.298Z,11.80
2022-11-02T10:19:57.668Z,14.03
2022-11-02T10:22:29.278Z,12.20
2022-11-02T10:24:59.326Z,13.73
2022-11-02T10:27:30.388Z,13.23
2022-11-02T10:30:04.906Z,15.13
2022-11-02T10:32:34.997Z,17.23
2022-11-02T10:35:26.318Z,15.50
2022-11-02T10:38:14.983Z,14.83
2022-11-02T10:41:05.490Z,14.40
2022-11-02T10:43:51.778Z,14.77
2022-11-02T10:46:41.649Z,15.77
2022-11-02T10:49:17.261Z,13.77
2022-11-02T10:51:47.497Z,14.00
2022-11-02T10:54:20.653Z,14.07
2022-11-02T10:56:53.371Z,13.07
2022-11-02T10:59:23.668Z,12.97
2022-11-02T11:02:13.321Z,9.47
2022-11-02T11:04:43.126Z,11.43
2022-11-02T11:07:17.416Z,10.97
2022-11-02T11:09:51.621Z,10.07
2022-11-02T11:12:24.139Z,10.43
2022-11-02T11:20:39.009Z,5.67
2022-11-02T11:23:19.441Z,6.50
2022-11-02T11:25:58.889Z,5.63
2022-11-02T11:28:29.897Z,7.23
2022-11-02T11:31:08.084Z,5.23
2022-11-02T11:33:45.950Z,5.67
2022-11-02T11:39:01.359Z,6.93
2022-11-02T11:41:30.079Z,6.43
2022-11-02T11:43:58.918Z,5.57
2022-11-02T11:46:41.188Z,5.13
2022-11-02T11:49:35.861Z,6.73
2022-11-02T11:52:19.934Z,5.93
2022-11-02T11:54:54.918Z,5.67
2022-11-02T11:57:28.085Z,3.43
2022-11-02T11:59:59.081Z,6.00
2022-11-02T12:02:29.201Z,6.20
2022-11-02T12:05:15.224Z,5.20
2022-11-02T12:08:24.061Z,3.77
2022-11-02T12:11:05.101Z,4.37
2022-11-02T12:13:50.669Z,7.33
2022-11-02T12:16:28.036Z,5.57
2022-11-02T12:19:15.240Z,3.90
2022-11-02T12:22:00.855Z,4.87
2022-11-02T12:24:59.103Z,4.00
2022-11-02T12:27:37.954Z,6.87
2022-11-02T12:30:14.509Z,5.67
2022-11-02T12:32:54.575Z,9.60
2022-11-02T12:35:33.235Z,4.27
2022-11-02T12:38:18.192Z,6.23
2022-11-02T12:40:55.830Z,6.17
2022-11-02T12:43:35.994Z,5.73
2022-11-02T12:46:14.594Z,3.37
2022-11-02T12:48:52.282Z,3.73
2022-11-02T12:51:23.214Z,6.47
2022-11-02T12:53:58.606Z,3.30
2022-11-02T12:56:32.079Z,5.30
2022-11-02T12:59:01.192Z,3.90
2022-11-02T13:01:37.399Z,3.77
2022-11-02T13:04:14.372Z,7.77
2022-11-02T13:06:45.192Z,6.53
2022-11-02T13:09:19.964Z,6.37
2022-11-02T13:11:54.115Z,8.13
2022-11-02T13:14:26.699Z,6.13
2022-11-02T13:17:01.395Z,5.00
2022-11-02T13:19:34.983Z,7.57
2022-11-02T13:22:05.594Z,5.00
2022-11-02T13:24:43.574Z,6.40
2022-11-02T13:27:39.095Z,8.03
2022-11-02T13:30:15.856Z,7.00
2022-11-02T13:32:46.474Z,6.27
2022-11-02T13:35:19.920Z,6.67
2022-11-02T13:37:52.316Z,6.47
2022-11-02T13:40:26.121Z,7.93
2022-11-02T13:43:24.521Z,6.10
2022-11-02T13:46:22.034Z,7.10
2022-11-02T13:48:58.377Z,6.57
2022-11-02T13:51:36.421Z,4.90
2022-11-02T13:54:13.369Z,5.37
2022-11-02T13:56:44.479Z,7.57
2022-11-02T13:59:22.536Z,6.63
2022-11-02T14:01:55.093Z,4.67
2022-11-02T14:04:24.045Z,6.03
2022-11-02T14:06:56.507Z,5.23
2022-11-02T14:09:38.731Z,7.27
2022-11-02T14:12:28.836Z,6.87
2022-11-02T14:15:48.699Z,6.33
2022-11-02T14:18:31.462Z,7.77
2022-11-02T14:21:20.241Z,6.67
2022-11-02T14:23:48.411Z,5.37
2022-11-02T14:26:54.807Z,7.67
2022-11-02T14:29:52.380Z,9.43
2022-11-02T14:32:33.296Z,12.20
2022-11-02T14:35:14.416Z,8.33
2022-11-02T14:38:08.228Z,9.40
2022-11-02T14:40:47.778Z,10.20
2022-11-02T14:43:45.712Z,7.00
2022-11-02T14:46:29.280Z,8.43
2022-11-02T14:49:01.598Z,11.77
2022-11-02T14:51:32.435Z,17.57
2022-11-02T14:54:02.867Z,15.37
2022-11-02T14:56:53.017Z,15.47
2022-11-02T14:59:25.464Z,21.03
2022-11-02T15:01:57.489Z,13.77
2022-11-02T15:04:27.940Z,16.03
2022-11-02T15:06:57.486Z,13.73
2022-11-02T15:09:55.496Z,10.37
2022-11-02T15:12:35.759Z,11.70
2022-11-02T15:15:29.069Z,10.10
2022-11-02T15:18:21.644Z,14.67
2022-11-02T15:21:29.383Z,13.13
2022-11-02T15:24:17.317Z,10.33
2022-11-02T15:26:52.267Z,13.00
2022-11-02T15:29:36.896Z,10.40
2022-11-02T15:32:09.897Z,8.33
2022-11-02T15:34:42.726Z,9.47
2022-11-02T15:37:19.110Z,8.70
2022-11-02T15:39:51.211Z,8.70
2022-11-02T15:42:29.414Z,10.93
2022-11-02T15:45:34.164Z,11.00
2022-11-02T15:48:22.547Z,8.30
2022-11-02T15:50:59.455Z,9.20
2022-11-02T15:53:51.355Z,11.83
2022-11-02T15:56:35.599Z,8.47
2022-11-02T15:59:20.639Z,9.57
2022-11-02T16:02:09.788Z,7.40
2022-11-02T16:04:38.863Z,9.03
2022-11-02T16:07:09.208Z,10.00
2022-11-02T16:09:39.176Z,9.97
2022-11-02T16:12:13.031Z,10.67
2022-11-02T16:14:41.797Z,12.20
2022-11-02T16:17:20.697Z,13.57
2022-11-02T16:19:49.481Z,13.33
2022-11-02T16:22:25.858Z,13.47
2022-11-02T16:24:55.316Z,13.63
2022-11-02T16:27:24.130Z,17.33
2022-11-02T16:29:52.486Z,16.27
2022-11-02T16:32:20.503Z,17.80
2022-11-02T16:34:48.900Z,19.77
2022-11-02T16:37:19.099Z,17.50
2022-11-02T16:39:50.583Z,22.10
2022-11-02T16:42:23.114Z,22.87
2022-11-02T16:44:57.627Z,25.37
2022-11-02T16:47:39.159Z,18.83
2022-11-02T16:50:21.152Z,15.90
2022-11-02T16:52:56.834Z,17.13
2022-11-02T16:55:37.640Z,16.77
2022-11-02T16:58:08.370Z,13.73
2022-11-02T17:00:37.409Z,14.67
2022-11-02T17:03:10.433Z,12.77
2022-11-02T17:05:42.715Z,12.27
2022-11-02T17:08:28.346Z,15.23
2022-11-02T17:10:59.808Z,14.17
2022-11-02T17:13:30.362Z,14.63
2022-11-02T17:16:06.043Z,17.83
2022-11-02T17:18:34.236Z,11.10
2022-11-02T17:21:27.207Z,14.60
2022-11-02T17:23:56.715Z,13.77
2022-11-02T17:26:38.427Z,17.33
2022-11-02T17:29:33.122Z,12.17
2022-11-02T17:32:01.727Z,16.70
2022-11-02T17:34:31.530Z,13.40
2022-11-02T17:36:59.649Z,14.70
2022-11-02T17:39:27.647Z,15.23
2022-11-02T17:42:16.058Z,14.73
2022-11-02T17:44:45.329Z,14.80
2022-11-02T17:47:14.602Z,17.37
2022-11-02T17:49:42.629Z,17.93
2022-11-02T17:52:13.745Z,16.10
2022-11-02T17:54:41.799Z,19.27
2022-11-02T17:57:14.211Z,17.40
2022-11-02T17:59:42.287Z,18.30
2022-11-02T18:02:14.546Z,20.40
2022-11-02T18:07:12.318Z,19.50
2022-11-02T18:09:40.371Z,20.70
2022-11-02T18:12:10.231Z,19.93
2022-11-02T18:14:40.334Z,24.43
2022-11-02T18:17:08.922Z,21.03
2022-11-02T18:19:36.925Z,20.30
2022-11-02T18:22:04.986Z,22.67
2022-11-02T18:24:33.011Z,21.13
2022-11-02T18:27:01.028Z,21.80
2022-11-02T18:29:29.113Z,23.33
2022-11-02T18:31:58.512Z,22.93
2022-11-02T18:34:28.131Z,23.80
2022-11-02T18:36:56.219Z,23.60
2022-11-02T18:39:24.288Z,21.37
2022-11-02T18:41:53.360Z,22.13
2022-11-02T18:44:21.378Z,21.80
2022-11-02T18:46:50.040Z,21.50
2022-11-02T18:49:19.380Z,21.83
2022-11-02T18:51:47.700Z,20.67
2022-11-02T18:54:16.855Z,21.03
2022-11-02T18:56:45.062Z,17.97
2022-11-02T18:59:13.176Z,23.30
2022-11-02T19:01:41.268Z,23.90
2022-11-02T19:04:17.180Z,20.53
2022-11-02T19:07:04.824Z,20.30
2022-11-02T19:09:34.031Z,20.17
2022-11-02T19:12:05.738Z,22.10
2022-11-02T19:14:35.378Z,22.37
2022-11-02T19:17:04.104Z,21.33
2022-11-02T19:19:32.251Z,22.17
2022-11-02T19:22:01.966Z,21.40
2022-11-02T19:24:30.307Z,20.50
2022-11-02T19:26:58.349Z,25.00
2022-11-02T19:29:28.297Z,21.40
2022-11-02T19:31:56.382Z,24.03
2022-11-02T19:34:24.392Z,21.93
2022-11-02T19:36:52.658Z,25.37
2022-11-02T19:39:22.087Z,20.73
2022-11-02T19:41:52.356Z,24.30
2022-11-02T19:44:20.344Z,25.17
2022-11-02T19:46:49.961Z,23.50
2022-11-02T19:49:18.056Z,22.70
2022-11-02T19:51:46.068Z,21.70
2022-11-02T19:54:14.585Z,23.87
2022-11-02T19:56:43.980Z,23.63
2022-11-02T19:59:12.131Z,22.27
2022-11-02T20:01:42.185Z,20.93
2022-11-02T20:04:11.225Z,24.77
2022-11-02T20:06:40.634Z,22.77
2022-11-02T20:09:14.966Z,24.73
2022-11-02T20:11:45.507Z,24.90
2022-11-02T20:14:14.714Z,23.73
2022-11-02T20:16:43.645Z,24.40
2022-11-02T20:19:13.347Z,25.87
2022-11-02T20:21:43.446Z,28.43
2022-11-02T20:24:12.031Z,24.47
2022-11-02T20:26:42.417Z,24.30
2022-11-02T20:29:15.343Z,27.43
2022-11-02T20:31:45.292Z,23.80
2022-11-02T20:34:14.022Z,26.27
2022-11-02T20:36:42.597Z,27.60
2022-11-02T20:39:13.323Z,27.77
2022-11-02T20:41:41.319Z,30.57
2022-11-02T20:44:11.056Z,30.67
2022-11-02T20:46:42.227Z,28.53
2022-11-02T20:49:22.033Z,31.30
2022-11-02T20:51:57.308Z,31.70
2022-11-02T20:54:26.510Z,29.23
2022-11-02T20:56:54.570Z,30.17
2022-11-02T20:59:22.553Z,29.40
2022-11-02T21:01:52.263Z,28.67
2022-11-02T21:04:21.718Z,30.80
2022-11-02T21:06:50.521Z,29.30
2022-11-02T21:09:18.782Z,31.33
2022-11-02T21:12:04.598Z,31.00
2022-11-02T21:14:32.612Z,28.33
2022-11-02T21:17:03.106Z,27.80
2022-11-02T21:19:32.528Z,30.17
2022-11-02T21:22:00.875Z,30.13
2022-11-02T21:24:32.210Z,28.23
2022-11-02T21:27:00.218Z,30.27
2022-11-02T21:29:28.232Z,31.67
2022-11-02T21:31:56.330Z,28.73
2022-11-02T21:34:25.773Z,29.33
2022-11-02T21:36:53.878Z,29.67
2022-11-02T21:39:21.932Z,31.70
2022-11-02T21:41:50.218Z,29.23
2022-11-02T21:44:18.291Z,32.10
2022-11-02T21:46:49.159Z,31.77
2022-11-02T21:49:17.184Z,33.73
2022-11-02T21:51:46.568Z,31.70
2022-11-02T21:54:14.588Z,32.27
2022-11-02T21:56:43.179Z,35.93
2022-11-02T21:59:11.128Z,33.90
2022-11-02T22:01:44.480Z,35.00
2022-11-02T22:04:14.364Z,36.03
2022-11-02T22:06:42.941Z,36.43
2022-11-02T22:09:14.236Z,35.33
2022-11-02T22:11:42.760Z,37.03
2022-11-02T22:14:10.760Z,36.37
2022-11-02T22:16:40.639Z,37.97
2022-11-02T22:19:09.968Z,37.00
2022-11-02T22:21:39.330Z,34.60
2022-11-02T22:24:08.156Z,37.00
2022-11-02T22:26:38.868Z,38.10
2022-11-02T22:29:07.270Z,38.77
2022-11-02T22:31:36.972Z,36.90
2022-11-02T22:34:07.902Z,35.10
2022-11-02T22:36:36.887Z,36.80
2022-11-02T22:39:05.323Z,39.07
2022-11-02T22:41:36.207Z,38.90
2022-11-02T22:44:07.051Z,36.57
2022-11-02T22:46:37.757Z,37.57
2022-11-02T22:49:07.671Z,35.20
2022-11-02T22:51:37.891Z,36.13
2022-11-02T22:54:07.828Z,36.63
2022-11-02T22:56:36.227Z,36.80
2022-11-02T22:59:06.190Z,34.60
2022-11-02T23:01:35.279Z,34.40
2022-11-02T23:04:03.858Z,36.97
2022-11-02T23:06:32.393Z,37.87
2022-11-02T23:09:01.334Z,42.57
2022-11-02T23:11:31.657Z,36.27
2022-11-02T23:14:02.033Z,38.93
2022-11-02T23:16:34.005Z,36.93
2022-11-02T23:19:25.248Z,37.77
2022-11-02T23:22:10.497Z,39.23
2022-11-02T23:24:56.750Z,38.47
2022-11-02T23:27:25.254Z,37.77
2022-11-02T23:30:10.760Z,38.40
2022-11-02T23:32:41.444Z,38.53
2022-11-02T23:35:27.167Z,40.53
2022-11-02T23:38:04.288Z,39.23
2022-11-02T23:40:33.732Z,36.70
2022-11-02T23:43:01.852Z,37.20
2022-11-02T23:45:29.879Z,35.90
2022-11-02T23:48:00.618Z,35.07
2022-11-02T23:50:48.420Z,34.83
2022-11-02T23:53:36.089Z,38.70
2022-11-02T23:56:21.965Z,33.73
2022-11-02T23:59:06.385Z,35.80
